createdAt,value
2018-12-23T00:02:33.913Z,73.89
2018-12-23T00:05:37.852Z,73.76
2018-12-23T00:08:41.924Z,73.79
2018-12-23T00:11:45.863Z,73.69
2018-12-23T00:14:49.969Z,74.27
2018-12-23T00:17:53.907Z,74.27
2018-12-23T00:20:59.452Z,73.86
2018-12-23T00:24:03.527Z,73.66
2018-12-23T00:27:07.656Z,73.51
2018-12-23T00:30:11.618Z,74.42
2018-12-23T00:33:15.685Z,74.29
2018-12-23T00:36:19.628Z,73.81
2018-12-23T00:39:23.660Z,73.81
2018-12-23T00:42:27.600Z,73.66
2018-12-23T00:45:31.736Z,73.98
2018-12-23T00:48:35.680Z,74.05
2018-12-23T00:51:39.764Z,73.83
2018-12-23T00:54:43.801Z,73.70
2018-12-23T00:57:47.899Z,74.31
2018-12-23T01:00:51.837Z,74.55
2018-12-23T01:03:55.926Z,74.65
2018-12-23T01:06:59.864Z,75.17
2018-12-23T01:10:04.574Z,76.07
2018-12-23T01:13:08.515Z,75.76
2018-12-23T01:16:12.546Z,76.60
2018-12-23T01:19:16.480Z,76.39
2018-12-23T01:22:20.645Z,77.14
2018-12-23T01:25:24.560Z,77.46
2018-12-23T01:28:28.645Z,77.66
2018-12-23T01:31:32.588Z,78.02
2018-12-23T01:34:37.164Z,78.38
2018-12-23T01:37:41.406Z,78.30
2018-12-23T01:40:45.516Z,78.17
2018-12-23T01:43:49.460Z,78.50
2018-12-23T01:46:53.916Z,78.90
2018-12-23T01:49:57.857Z,79.15
2018-12-23T01:53:01.980Z,79.07
2018-12-23T01:56:05.957Z,78.92
2018-12-23T01:59:10.004Z,79.33
2018-12-23T02:02:13.948Z,79.01
2018-12-23T02:05:18.032Z,79.28
2018-12-23T02:08:21.976Z,79.23
2018-12-23T02:11:26.068Z,79.59
2018-12-23T02:14:30.008Z,79.35
2018-12-23T02:17:34.090Z,79.69
2018-12-23T02:20:38.036Z,79.82
2018-12-23T02:23:42.120Z,79.31
2018-12-23T02:26:46.056Z,79.59
2018-12-23T02:29:50.140Z,79.28
2018-12-23T02:32:54.085Z,79.11
2018-12-23T02:35:58.270Z,79.25
2018-12-23T02:39:02.232Z,79.17
2018-12-23T02:42:06.296Z,79.09
2018-12-23T02:45:10.232Z,78.79
2018-12-23T02:48:14.260Z,79.01
2018-12-23T02:51:18.204Z,78.65
2018-12-23T02:54:22.258Z,78.94
2018-12-23T02:57:26.204Z,78.47
2018-12-23T03:00:30.269Z,78.26
2018-12-23T03:03:34.213Z,78.77
2018-12-23T03:06:38.237Z,78.19
2018-12-23T03:09:42.249Z,78.46
2018-12-23T03:12:46.333Z,78.71
2018-12-23T03:15:50.278Z,78.85
2018-12-23T03:18:54.301Z,79.02
2018-12-23T03:21:58.244Z,79.13
2018-12-23T03:25:02.380Z,79.36
2018-12-23T03:28:06.330Z,79.22
2018-12-23T03:31:10.347Z,79.51
2018-12-23T03:34:14.285Z,79.12
2018-12-23T03:37:18.333Z,79.23
2018-12-23T03:40:22.280Z,79.93
2018-12-23T03:43:26.465Z,79.37
2018-12-23T03:46:30.403Z,79.64
2018-12-23T03:49:34.431Z,79.54
2018-12-23T03:52:38.369Z,79.37
2018-12-23T03:55:42.616Z,79.25
2018-12-23T03:58:46.557Z,79.38
2018-12-23T04:01:50.644Z,79.25
2018-12-23T04:04:54.589Z,79.80
2018-12-23T04:07:58.672Z,79.84
2018-12-23T04:11:02.620Z,79.50
2018-12-23T04:14:06.701Z,79.74
2018-12-23T04:17:10.648Z,79.44
2018-12-23T04:20:14.675Z,79.49
2018-12-23T04:23:18.613Z,79.58
2018-12-23T04:26:22.757Z,79.84
2018-12-23T04:29:26.701Z,79.54
2018-12-23T04:32:30.781Z,79.85
2018-12-23T04:35:34.728Z,79.84
2018-12-23T04:38:38.808Z,79.94
2018-12-23T04:41:42.748Z,80.12
2018-12-23T04:44:46.833Z,79.72
2018-12-23T04:47:50.781Z,79.99
2018-12-23T04:50:54.860Z,80.24
2018-12-23T04:53:58.808Z,79.94
2018-12-23T04:57:02.992Z,79.87
2018-12-23T05:00:06.947Z,79.76
2018-12-23T05:03:11.217Z,79.93
2018-12-23T05:06:15.171Z,79.97
2018-12-23T05:09:21.195Z,80.08
2018-12-23T05:12:25.140Z,79.66
2018-12-23T05:15:29.200Z,80.14
2018-12-23T05:18:33.149Z,79.70
2018-12-23T05:21:37.221Z,79.44
2018-12-23T05:24:41.176Z,79.47
2018-12-23T05:27:45.272Z,79.75
2018-12-23T05:30:49.218Z,79.85
2018-12-23T05:33:53.301Z,80.07
2018-12-23T05:36:57.249Z,80.21
2018-12-23T05:40:01.328Z,80.64
2018-12-23T05:43:05.273Z,80.69
2018-12-23T05:46:09.354Z,80.97
2018-12-23T05:49:13.312Z,81.17
2018-12-23T05:52:17.376Z,80.78
2018-12-23T05:55:24.853Z,81.09
2018-12-23T05:58:28.996Z,81.02
2018-12-23T06:01:32.937Z,81.00
2018-12-23T06:04:37.017Z,81.02
2018-12-23T06:07:40.957Z,81.11
2018-12-23T06:10:44.981Z,80.82
2018-12-23T06:13:48.925Z,81.18
2018-12-23T06:16:53.068Z,81.02
2018-12-23T06:19:57.013Z,80.83
2018-12-23T06:23:01.301Z,81.05
2018-12-23T06:26:05.247Z,80.72
2018-12-23T06:29:09.332Z,80.76
2018-12-23T06:32:13.274Z,80.73
2018-12-23T06:35:17.355Z,80.85
2018-12-23T06:38:21.293Z,80.69
2018-12-23T06:41:25.386Z,80.91
2018-12-23T06:44:29.321Z,81.03
2018-12-23T06:47:33.413Z,80.83
2018-12-23T06:50:37.349Z,81.20
2018-12-23T06:53:41.373Z,81.25
2018-12-23T06:56:45.316Z,81.19
2018-12-23T06:59:49.465Z,81.45
2018-12-23T07:02:53.408Z,81.12
2018-12-23T07:05:57.430Z,81.30
2018-12-23T07:09:01.374Z,81.59
2018-12-23T07:12:05.513Z,81.24
2018-12-23T07:15:09.466Z,81.26
2018-12-23T07:18:13.528Z,81.26
2018-12-23T07:21:17.477Z,81.32
2018-12-23T07:24:21.668Z,81.00
2018-12-23T07:27:25.621Z,80.80
2018-12-23T07:30:29.697Z,81.02
2018-12-23T07:33:33.641Z,81.04
2018-12-23T07:36:37.705Z,81.11
2018-12-23T07:39:41.655Z,80.96
2018-12-23T07:42:45.749Z,81.05
2018-12-23T07:45:49.693Z,81.07
2018-12-23T07:48:53.776Z,80.91
2018-12-23T07:51:57.720Z,81.02
2018-12-23T07:55:01.806Z,81.02
2018-12-23T07:58:06.735Z,80.97
2018-12-23T08:01:11.038Z,81.01
2018-12-23T08:04:14.966Z,81.10
2018-12-23T08:07:18.987Z,81.45
2018-12-23T08:10:22.929Z,81.23
2018-12-23T08:13:27.014Z,81.32
2018-12-23T08:16:30.953Z,81.50
2018-12-23T08:19:34.990Z,81.77
2018-12-23T08:22:39.128Z,81.67
2018-12-23T08:25:43.321Z,81.63
2018-12-23T08:28:47.301Z,82.03
2018-12-23T08:31:51.406Z,82.00
2018-12-23T08:34:55.348Z,81.99
2018-12-23T08:37:59.425Z,81.92
2018-12-23T08:41:03.377Z,82.09
2018-12-23T08:44:07.661Z,82.03
2018-12-23T08:47:11.611Z,81.87
2018-12-23T08:50:15.686Z,82.03
2018-12-23T08:53:19.798Z,82.13
2018-12-23T08:56:23.916Z,82.21
2018-12-23T08:59:27.864Z,82.36
2018-12-23T09:02:31.960Z,82.40
2018-12-23T09:05:35.904Z,82.12
2018-12-23T09:08:39.973Z,82.48
2018-12-23T09:11:43.921Z,82.18
2018-12-23T09:14:47.948Z,82.42
2018-12-23T09:17:51.896Z,82.07
2018-12-23T09:20:59.612Z,82.27
2018-12-23T09:24:03.556Z,82.15
2018-12-23T09:27:07.613Z,82.10
2018-12-23T09:30:11.705Z,81.57
2018-12-23T09:33:15.885Z,81.95
2018-12-23T09:36:19.808Z,81.97
2018-12-23T09:39:23.897Z,81.38
2018-12-23T09:42:27.841Z,81.72
2018-12-23T09:45:31.865Z,81.63
2018-12-23T09:48:35.853Z,81.60
2018-12-23T09:51:39.948Z,81.31
2018-12-23T09:54:43.889Z,81.33
2018-12-23T09:57:47.976Z,81.53
2018-12-23T10:00:51.927Z,81.75
2018-12-23T10:03:56.061Z,81.40
2018-12-23T10:07:00.068Z,81.55
2018-12-23T10:10:06.208Z,81.62
2018-12-23T10:13:10.182Z,81.30
2018-12-23T10:16:14.273Z,81.12
2018-12-23T10:19:18.220Z,80.86
2018-12-23T10:22:22.450Z,81.46
2018-12-23T10:25:26.400Z,81.52
2018-12-23T10:28:30.467Z,81.32
2018-12-23T10:31:34.408Z,81.64
2018-12-23T10:34:38.497Z,82.00
2018-12-23T10:37:42.436Z,81.93
2018-12-23T10:40:46.775Z,82.06
2018-12-23T10:43:50.721Z,82.03
2018-12-23T10:46:54.860Z,81.56
2018-12-23T10:49:58.804Z,81.51
2018-12-23T10:53:02.892Z,81.84
2018-12-23T10:56:06.844Z,81.61
2018-12-23T10:59:11.221Z,81.74
2018-12-23T11:02:15.195Z,81.79
2018-12-23T11:05:19.280Z,81.83
2018-12-23T11:08:26.862Z,81.51
2018-12-23T11:11:29.321Z,81.34
2018-12-23T11:14:33.268Z,81.16
2018-12-23T11:17:37.358Z,81.27
2018-12-23T11:20:41.305Z,81.08
2018-12-23T11:23:45.477Z,80.77
2018-12-23T11:26:49.419Z,80.52
2018-12-23T11:29:53.502Z,80.68
2018-12-23T11:32:57.440Z,80.08
2018-12-23T11:36:01.628Z,79.91
2018-12-23T11:39:18.769Z,79.64
2018-12-23T11:42:23.381Z,78.82
2018-12-23T11:45:27.329Z,79.11
2018-12-23T11:48:31.517Z,78.57
2018-12-23T11:51:35.468Z,78.93
2018-12-23T11:54:39.540Z,77.48
2018-12-23T11:57:43.752Z,76.72
2018-12-23T12:00:47.769Z,76.47
2018-12-23T12:03:51.712Z,76.09
2018-12-23T12:06:55.736Z,76.57
2018-12-23T12:09:59.828Z,76.03
2018-12-23T12:13:04.005Z,75.36
2018-12-23T12:16:08.025Z,75.31
2018-12-23T12:19:12.058Z,74.83
2018-12-23T12:22:16.006Z,73.97
2018-12-23T12:25:20.068Z,73.22
2018-12-23T12:28:24.013Z,72.99
2018-12-23T12:31:28.224Z,73.88
2018-12-23T12:34:32.180Z,73.31
2018-12-23T12:37:36.277Z,73.78
2018-12-23T12:40:40.219Z,72.63
2018-12-23T12:43:44.268Z,73.14
2018-12-23T12:46:48.222Z,73.99
2018-12-23T12:49:52.296Z,73.39
2018-12-23T12:52:56.321Z,73.36
2018-12-23T12:56:02.511Z,74.21
2018-12-23T12:59:06.320Z,73.32
2018-12-23T13:02:10.397Z,73.04
2018-12-23T13:05:14.341Z,72.81
2018-12-23T13:08:18.420Z,73.22
2018-12-23T13:11:22.361Z,72.78
2018-12-23T13:14:26.381Z,72.56
2018-12-23T13:17:30.336Z,72.90
2018-12-23T13:20:34.377Z,72.19
2018-12-23T13:23:38.330Z,72.88
2018-12-23T13:26:42.617Z,72.71
2018-12-23T13:29:47.569Z,72.31
2018-12-23T13:32:51.973Z,72.96
2018-12-23T13:35:56.114Z,72.08
2018-12-23T13:39:08.782Z,71.96
2018-12-23T13:42:16.494Z,71.45
2018-12-23T13:49:46.849Z,72.06
2018-12-23T13:53:21.221Z,71.90
2018-12-23T13:56:40.081Z,72.44
2018-12-23T14:00:06.857Z,71.36
2018-12-23T14:03:39.427Z,71.08
2018-12-23T14:07:11.256Z,71.62
2018-12-23T14:10:24.073Z,71.64
2018-12-23T14:13:29.265Z,71.51
2018-12-23T14:16:34.384Z,71.22
2018-12-23T14:19:39.646Z,71.23
2018-12-23T14:22:44.762Z,71.14
2018-12-23T14:25:49.959Z,71.24
2018-12-23T14:28:55.097Z,71.45
2018-12-23T14:32:01.006Z,71.65
2018-12-23T14:35:06.472Z,71.96
2018-12-23T14:38:11.721Z,72.14
2018-12-23T14:41:16.798Z,72.23
2018-12-23T14:44:21.963Z,72.52
2018-12-23T14:47:27.470Z,72.45
2018-12-23T14:50:32.665Z,72.18
2018-12-23T14:53:37.739Z,72.50
2018-12-23T14:56:42.916Z,72.74
2018-12-23T14:59:47.990Z,72.52
2018-12-23T15:02:53.246Z,72.49
2018-12-23T15:05:58.378Z,72.55
2018-12-23T15:09:04.855Z,72.61
2018-12-23T15:12:09.943Z,72.64
2018-12-23T15:15:15.267Z,72.77
2018-12-23T15:18:20.570Z,72.81
2018-12-23T15:21:25.926Z,72.93
2018-12-23T15:24:31.321Z,72.81
2018-12-23T15:27:36.477Z,72.76
2018-12-23T15:30:41.890Z,72.90
2018-12-23T15:33:47.096Z,72.84
2018-12-23T15:36:52.182Z,72.79
2018-12-23T15:39:57.375Z,72.69
2018-12-23T15:43:02.456Z,72.43
2018-12-23T15:46:07.657Z,72.29
2018-12-23T15:49:12.733Z,72.39
2018-12-23T15:52:17.944Z,71.98
2018-12-23T15:55:23.015Z,71.72
2018-12-23T15:58:28.183Z,71.33
2018-12-23T16:01:33.257Z,70.94
2018-12-23T16:04:38.598Z,70.62
2018-12-23T16:07:43.675Z,70.04
2018-12-23T16:10:48.875Z,70.15
2018-12-23T16:13:53.947Z,69.89
2018-12-23T16:16:59.158Z,69.92
2018-12-23T16:20:05.752Z,69.73
2018-12-23T16:23:10.974Z,69.20
2018-12-23T16:26:16.049Z,69.51
2018-12-23T16:29:21.294Z,69.14
2018-12-23T16:32:26.427Z,69.92
2018-12-23T16:35:31.634Z,70.09
2018-12-23T16:38:36.713Z,70.52
2018-12-23T16:41:41.878Z,70.67
2018-12-23T16:44:46.956Z,71.15
2018-12-23T16:47:52.196Z,70.37
2018-12-23T16:50:57.273Z,70.49
2018-12-23T16:54:02.472Z,69.86
2018-12-23T16:57:07.555Z,69.40
2018-12-23T17:00:14.394Z,68.85
2018-12-23T17:03:19.543Z,69.10
2018-12-23T17:06:25.851Z,68.68
2018-12-23T17:09:31.038Z,69.03
2018-12-23T17:12:36.283Z,68.94
2018-12-23T17:15:41.365Z,69.11
2018-12-23T17:18:46.561Z,69.34
2018-12-23T17:21:51.641Z,69.17
2018-12-23T17:24:56.797Z,69.37
2018-12-23T17:28:01.879Z,69.67
2018-12-23T17:31:07.481Z,69.94
2018-12-23T17:34:12.601Z,69.17
2018-12-23T17:37:17.914Z,69.13
2018-12-23T17:40:22.990Z,69.39
2018-12-23T17:43:28.193Z,69.09
2018-12-23T17:46:33.273Z,68.16
2018-12-23T17:49:38.679Z,68.47
2018-12-23T17:52:43.755Z,68.12
2018-12-23T17:55:50.698Z,68.36
2018-12-23T17:58:55.774Z,68.07
2018-12-23T18:02:01.079Z,68.78
2018-12-23T18:05:06.805Z,68.47
2018-12-23T18:08:12.075Z,68.67
2018-12-23T18:11:17.153Z,69.11
2018-12-23T18:14:22.458Z,68.90
2018-12-23T18:17:27.866Z,68.68
2018-12-23T18:20:33.046Z,68.97
2018-12-23T18:23:38.119Z,68.79
2018-12-23T18:26:45.252Z,70.11
2018-12-23T18:29:50.101Z,69.77
2018-12-23T18:32:55.357Z,70.15
2018-12-23T18:36:00.514Z,69.53
2018-12-23T18:39:07.572Z,69.95
2018-12-23T18:42:12.989Z,70.07
2018-12-23T18:45:18.156Z,69.58
2018-12-23T18:48:23.229Z,69.40
2018-12-23T18:51:28.539Z,70.51
2018-12-23T18:54:33.615Z,70.21
2018-12-23T18:57:39.231Z,70.97
2018-12-23T19:00:44.916Z,71.73
2018-12-23T19:03:50.128Z,72.35
2018-12-23T19:06:55.217Z,72.35
2018-12-23T19:10:00.375Z,72.95
2018-12-23T19:13:58.860Z,73.07
2018-12-23T19:17:36.202Z,73.57
2018-12-23T19:21:27.211Z,73.12
2018-12-23T19:24:56.406Z,72.29
2018-12-23T19:28:18.603Z,72.27
2018-12-23T19:31:52.550Z,72.47
2018-12-23T19:35:26.953Z,72.64
2018-12-23T19:38:58.137Z,72.66
2018-12-23T19:42:31.859Z,72.74
2018-12-23T19:46:23.115Z,72.16
2018-12-23T19:49:51.832Z,72.28
2018-12-23T19:53:23.110Z,72.35
2018-12-23T19:56:55.922Z,72.21
2018-12-23T20:00:22.646Z,71.64
2018-12-23T20:04:05.993Z,72.05
2018-12-23T20:07:41.533Z,72.09
2018-12-23T20:11:06.522Z,71.54
2018-12-23T20:14:36.055Z,72.05
2018-12-23T20:17:48.675Z,71.63
2018-12-23T20:21:36.024Z,70.91
2018-12-23T20:25:00.853Z,71.21
2018-12-23T20:28:47.713Z,71.23
2018-12-23T20:32:09.318Z,71.23
2018-12-23T20:35:31.378Z,71.33
2018-12-23T20:39:31.186Z,70.91
2018-12-23T20:42:59.482Z,70.51
2018-12-23T20:46:41.191Z,70.40
2018-12-23T20:49:57.075Z,70.30
2018-12-23T20:53:12.320Z,70.89
2018-12-23T20:56:34.271Z,70.84
2018-12-23T20:59:53.226Z,71.55
2018-12-23T21:03:12.206Z,71.51
2018-12-23T21:06:31.185Z,71.68
2018-12-23T21:10:05.701Z,71.86
2018-12-23T21:13:21.255Z,71.97
2018-12-23T21:16:31.344Z,72.49
2018-12-23T21:19:53.316Z,73.19
2018-12-23T21:23:21.660Z,73.44
2018-12-23T21:26:49.735Z,73.62
2018-12-23T21:30:41.776Z,73.60
2018-12-23T21:34:17.246Z,73.86
2018-12-23T21:37:45.625Z,73.77
2018-12-23T21:41:24.384Z,73.40
2018-12-23T21:44:49.040Z,73.85
2018-12-23T21:48:28.077Z,74.06
2018-12-23T21:52:03.723Z,73.72
2018-12-23T21:55:47.245Z,73.98
2018-12-23T21:59:15.265Z,74.31
2018-12-23T22:02:54.552Z,74.60
2018-12-23T22:06:25.806Z,74.69
2018-12-23T22:09:57.232Z,74.54
2018-12-23T22:13:24.341Z,74.63
2018-12-23T22:16:29.416Z,74.60
2018-12-23T22:19:34.622Z,74.41
2018-12-23T22:22:39.704Z,74.38
2018-12-23T22:25:44.865Z,74.56
2018-12-23T22:28:49.939Z,74.20
2018-12-23T22:31:55.197Z,73.67
2018-12-23T22:35:00.279Z,73.99
2018-12-23T22:38:05.523Z,73.64
2018-12-23T22:41:10.595Z,73.86
2018-12-23T22:44:15.859Z,73.61
2018-12-23T22:47:21.011Z,73.51
2018-12-23T22:50:26.225Z,73.29
2018-12-23T22:53:32.940Z,73.05
2018-12-23T22:56:38.144Z,73.19
2018-12-23T22:59:43.363Z,73.15
2018-12-23T23:02:48.519Z,73.00
2018-12-23T23:05:53.593Z,73.31
2018-12-23T23:08:58.805Z,72.97
2018-12-23T23:12:03.877Z,72.94
2018-12-23T23:15:09.088Z,73.10
2018-12-23T23:18:14.166Z,73.01
2018-12-23T23:21:19.364Z,73.13
2018-12-23T23:24:24.444Z,73.08
2018-12-23T23:27:29.747Z,72.91
2018-12-23T23:30:34.811Z,73.12
2018-12-23T23:33:40.026Z,73.41
2018-12-23T23:36:45.111Z,73.93
2018-12-23T23:39:50.306Z,73.92
2018-12-23T23:42:55.380Z,74.10
2018-12-23T23:46:00.546Z,74.47
2018-12-23T23:49:05.956Z,74.56
2018-12-23T23:52:11.169Z,75.34
2018-12-23T23:55:16.244Z,75.42
2018-12-23T23:58:21.396Z,75.81
